Time;durP1;ratioP1;P1;durP2;ratioP2;P2;SDS_P1;SDS_P2;PMS_P1;PMS_P2;Temp;Humidity;BMP_temperature;BMP_pressure;BME280_temperature;BME280_humidity;BME280_pressure;Samples;Min_cycle;Max_cycle;Signal;HPM_P1;HPM_P2
2023/01/29 00:01:17;;;;;;;14.50;8.43;;;4.00;99.90;;;;;;6274528;22;20043;-81
2023/01/29 00:03:54;;;;;;;15.55;8.75;;;3.70;99.90;;;;;;6275793;22;20007;-82
2023/01/29 00:06:26;;;;;;;13.55;9.00;;;3.80;99.90;;;;;;6277875;22;20442;-82
2023/01/29 00:08:55;;;;;;;14.20;9.40;;;4.00;99.90;;;;;;6279020;22;20014;-82
2023/01/29 00:11:28;;;;;;;13.00;9.30;;;3.70;99.90;;;;;;6277017;22;20122;-82
2023/01/29 00:14:02;;;;;;;14.68;8.40;;;3.60;99.90;;;;;;6277076;22;20442;-82
2023/01/29 00:16:31;;;;;;;15.70;8.93;;;3.70;99.90;;;;;;6275667;22;20007;-82
2023/01/29 00:19:01;;;;;;;15.40;9.40;;;3.80;99.90;;;;;;6276711;22;20016;-81
2023/01/29 00:21:29;;;;;;;13.73;8.85;;;4.00;99.90;;;;;;6276799;22;20008;-81
2023/01/29 00:23:58;;;;;;;14.00;9.48;;;3.50;99.90;;;;;;6277532;22;20300;-82
2023/01/29 00:26:30;;;;;;;15.60;9.50;;;3.70;99.90;;;;;;6277193;22;20011;-82
2023/01/29 00:29:01;;;;;;;14.05;9.20;;;3.80;99.90;;;;;;6279347;22;20018;-82
2023/01/29 00:31:33;;;;;;;18.77;9.38;;;4.00;99.90;;;;;;6276178;22;20307;-82
2023/01/29 00:34:06;;;;;;;14.40;9.48;;;3.60;99.90;;;;;;6278724;22;20011;-81
2023/01/29 00:36:35;;;;;;;13.90;8.93;;;3.80;99.90;;;;;;6277490;22;20734;-81
2023/01/29 00:39:09;;;;;;;17.05;10.13;;;3.70;99.90;;;;;;6278465;22;20763;-81
2023/01/29 00:47:29;;;;;;;16.47;9.33;;;3.90;99.90;;;;;;6301112;22;20023;-82
2023/01/29 00:50:03;;;;;;;16.85;10.00;;;3.80;99.90;;;;;;6277399;22;20245;-82
2023/01/29 00:52:35;;;;;;;19.73;9.88;;;4.00;99.90;;;;;;6275274;22;20015;-81
2023/01/29 00:55:05;;;;;;;16.52;10.10;;;3.60;99.90;;;;;;6277319;22;20095;-82
2023/01/29 00:57:34;;;;;;;20.95;10.35;;;3.70;99.90;;;;;;6269365;22;20181;-81
2023/01/29 01:00:13;;;;;;;16.52;9.82;;;4.00;99.90;;;;;;6248413;22;20322;-82
2023/01/29 01:05:31;;;;;;;15.48;10.27;;;3.60;99.90;;;;;;6275337;22;20015;-81
2023/01/29 01:08:00;;;;;;;15.18;10.13;;;3.90;99.90;;;;;;6250584;22;20026;-82
2023/01/29 01:10:31;;;;;;;17.70;10.82;;;3.60;99.90;;;;;;6252373;22;20016;-83
2023/01/29 01:13:08;;;;;;;19.63;12.10;;;4.00;99.90;;;;;;6253767;22;20068;-81
2023/01/29 01:15:37;;;;;;;18.80;10.73;;;3.90;99.90;;;;;;6250848;22;20022;-80
2023/01/29 01:18:03;;;;;;;18.67;11.85;;;3.70;99.90;;;;;;6250281;22;20019;-81
2023/01/29 01:20:33;;;;;;;26.75;11.52;;;3.60;99.90;;;;;;6251549;22;20011;-81
2023/01/29 01:22:58;;;;;;;19.52;12.10;;;4.00;99.90;;;;;;6250983;22;20065;-80
2023/01/29 01:25:26;;;;;;;18.23;12.25;;;3.60;99.90;;;;;;6303308;22;20011;-81
2023/01/29 01:27:53;;;;;;;17.73;12.43;;;3.60;99.90;;;;;;6250686;22;20098;-83
2023/01/29 01:30:19;;;;;;;18.70;11.98;;;4.00;99.90;;;;;;6252228;22;20054;-83
2023/01/29 01:32:48;;;;;;;18.58;11.52;;;4.00;99.90;;;;;;6277062;22;20011;-83
2023/01/29 01:35:14;;;;;;;21.17;12.50;;;3.90;99.90;;;;;;6250866;22;20465;-80
2023/01/29 01:37:41;;;;;;;22.13;12.48;;;3.90;99.90;;;;;;6275963;22;20083;-81
2023/01/29 01:40:18;;;;;;;23.20;13.77;;;3.90;99.90;;;;;;6277481;22;20069;-81
2023/01/29 01:42:56;;;;;;;19.52;13.00;;;3.80;99.90;;;;;;6251290;22;20094;-82
2023/01/29 01:45:28;;;;;;;16.92;11.90;;;4.00;99.90;;;;;;6228860;22;20011;-81
2023/01/29 01:48:06;;;;;;;19.38;13.40;;;4.00;99.90;;;;;;6249696;22;20049;-81
2023/01/29 01:51:02;;;;;;;18.45;12.63;;;3.70;99.90;;;;;;6251162;22;20015;-81
2023/01/29 01:53:40;;;;;;;21.65;13.27;;;3.70;99.90;;;;;;6274438;22;20090;-81
2023/01/29 01:56:14;;;;;;;19.63;13.00;;;4.00;99.90;;;;;;6250812;22;20015;-82
2023/01/29 01:58:49;;;;;;;19.85;13.18;;;3.80;99.90;;;;;;6271457;22;20069;-82
2023/01/29 02:01:16;;;;;;;20.38;13.80;;;3.90;99.90;;;;;;6275963;22;20011;-81
2023/01/29 02:09:57;;;;;;;24.02;14.65;;;4.10;99.90;;;;;;6303036;22;20076;-81
2023/01/29 02:12:31;;;;;;;21.10;14.32;;;3.80;99.90;;;;;;6276856;22;20013;-82
2023/01/29 02:14:59;;;;;;;21.92;13.95;;;4.20;99.90;;;;;;6309634;22;20099;-81
2023/01/29 02:17:28;;;;;;;25.73;14.13;;;3.90;99.90;;;;;;6276319;22;20415;-81
2023/01/29 02:20:22;;;;;;;24.42;14.70;;;3.70;99.90;;;;;;6252233;22;20015;-82
2023/01/29 02:23:08;;;;;;;24.90;14.95;;;4.10;99.90;;;;;;6276997;22;20019;-81
2023/01/29 02:25:38;;;;;;;24.92;15.27;;;3.70;99.90;;;;;;6278126;22;20018;-82
2023/01/29 02:28:28;;;;;;;23.75;15.07;;;3.70;99.90;;;;;;6303255;22;20026;-82
2023/01/29 02:31:08;;;;;;;23.17;14.98;;;3.70;99.90;;;;;;6284964;22;20119;-81
2023/01/29 02:33:51;;;;;;;28.63;15.77;;;4.20;99.90;;;;;;6277096;22;20027;-82
2023/01/29 02:36:32;;;;;;;24.90;15.35;;;4.20;99.90;;;;;;6304762;22;20019;-82
2023/01/29 02:39:15;;;;;;;23.52;15.35;;;3.90;99.90;;;;;;6277669;22;20055;-82
2023/01/29 02:41:54;;;;;;;26.80;15.40;;;4.20;99.90;;;;;;6277793;22;20039;-82
2023/01/29 02:44:34;;;;;;;25.92;16.00;;;3.80;99.90;;;;;;6279694;22;20019;-82
2023/01/29 02:47:09;;;;;;;25.02;16.27;;;3.80;99.90;;;;;;6281952;22;20069;-82
2023/01/29 02:49:48;;;;;;;27.02;17.08;;;4.10;99.90;;;;;;6294499;22;20004;-81
2023/01/29 02:52:24;;;;;;;24.13;16.15;;;4.20;99.90;;;;;;6301026;22;20048;-81
2023/01/29 02:55:24;;;;;;;25.38;16.60;;;3.80;99.90;;;;;;6279136;22;20012;-80
2023/01/29 02:58:01;;;;;;;30.35;17.05;;;3.90;99.90;;;;;;6275960;22;20169;-81
2023/01/29 03:00:35;;;;;;;28.52;16.77;;;4.20;99.90;;;;;;6273011;22;20496;-82
2023/01/29 03:03:23;;;;;;;26.30;16.80;;;3.90;99.90;;;;;;6273062;22;20416;-82
2023/01/29 03:06:05;;;;;;;24.60;16.90;;;4.00;99.90;;;;;;6277838;22;20011;-82
2023/01/29 03:08:50;;;;;;;26.02;17.05;;;3.70;99.90;;;;;;6300536;22;20026;-82
2023/01/29 03:11:20;;;;;;;26.33;17.35;;;3.80;99.90;;;;;;6276048;22;20502;-81
2023/01/29 03:14:06;;;;;;;25.63;17.13;;;3.80;99.90;;;;;;6273553;22;20019;-82
2023/01/29 03:16:52;;;;;;;27.77;18.58;;;3.70;99.90;;;;;;6274611;22;20019;-82
2023/01/29 03:19:24;;;;;;;27.42;17.92;;;3.80;99.90;;;;;;6274692;22;20015;-81
2023/01/29 03:22:03;;;;;;;28.15;19.30;;;3.80;99.90;;;;;;6274650;22;20019;-82
2023/01/29 03:33:46;;;;;;;35.08;22.42;;;3.90;99.90;;;;;;6152123;23;20102;-81
2023/01/29 03:36:36;;;;;;;34.10;22.63;;;3.80;99.90;;;;;;6153381;23;20197;-82
2023/01/29 03:39:10;;;;;;;37.15;23.83;;;4.20;99.90;;;;;;6153041;23;20331;-82
2023/01/29 03:41:57;;;;;;;35.80;23.73;;;3.70;99.90;;;;;;6155161;23;20009;-81
2023/01/29 03:44:39;;;;;;;39.80;24.25;;;3.80;99.90;;;;;;6160094;23;20013;-80
2023/01/29 03:47:15;;;;;;;33.20;24.15;;;3.70;99.90;;;;;;6156834;23;20075;-81
2023/01/29 03:49:55;;;;;;;36.80;23.92;;;4.20;99.90;;;;;;6130051;23;20095;-82
2023/01/29 03:52:59;;;;;;;36.92;25.40;;;4.20;99.90;;;;;;6153733;23;20017;-81
2023/01/29 03:56:01;;;;;;;38.05;24.30;;;4.00;99.90;;;;;;6153602;23;20048;-80
2023/01/29 03:58:46;;;;;;;30.90;22.42;;;3.70;99.90;;;;;;6154602;23;20158;-82
2023/01/29 04:01:20;;;;;;;38.83;24.08;;;4.10;99.90;;;;;;6154964;23;20501;-80
2023/01/29 04:04:08;;;;;;;33.50;23.17;;;3.90;99.90;;;;;;6215619;22;20022;-81
2023/01/29 04:06:46;;;;;;;35.35;23.17;;;3.80;99.90;;;;;;6253257;22;20019;-81
2023/01/29 04:09:20;;;;;;;37.08;22.60;;;3.80;99.90;;;;;;6253053;22;20090;-81
2023/01/29 04:11:58;;;;;;;34.55;22.13;;;4.00;99.90;;;;;;6252418;22;20011;-81
2023/01/29 04:14:29;;;;;;;33.67;22.27;;;4.30;99.90;;;;;;6253698;22;20011;-81
2023/01/29 04:17:05;;;;;;;32.33;21.92;;;3.80;99.90;;;;;;6255020;22;20065;-81
2023/01/29 04:19:39;;;;;;;35.03;22.42;;;4.00;99.90;;;;;;6252652;22;20027;-82
2023/01/29 04:22:13;;;;;;;32.55;21.95;;;3.80;99.90;;;;;;6251639;22;20007;-82
2023/01/29 04:24:43;;;;;;;33.37;22.67;;;4.00;99.90;;;;;;6252049;22;20008;-82
2023/01/29 04:27:46;;;;;;;30.25;21.85;;;4.00;99.90;;;;;;6252909;22;20548;-81
2023/01/29 04:30:59;;;;;;;28.95;21.65;;;4.10;99.90;;;;;;6251056;22;20022;-82
2023/01/29 04:34:16;;;;;;;31.23;22.40;;;3.80;99.90;;;;;;6132310;23;20075;-82
2023/01/29 04:36:58;;;;;;;35.78;22.75;;;4.20;99.90;;;;;;6038189;23;20111;-82
2023/01/29 04:40:10;;;;;;;34.08;23.23;;;4.20;99.90;;;;;;6015970;23;20404;-82
2023/01/29 04:43:04;;;;;;;31.90;21.83;;;4.10;99.90;;;;;;6039872;23;20054;-82
2023/01/29 04:45:50;;;;;;;35.40;22.13;;;4.20;99.90;;;;;;6039117;23;20507;-81
2023/01/29 04:48:33;;;;;;;34.00;23.42;;;3.80;99.90;;;;;;6040985;23;20372;-82
2023/01/29 04:51:04;;;;;;;;;;;3.90;99.90;;;;;;6039426;23;20018;-81
2023/01/29 04:53:48;;;;;;;35.70;23.40;;;4.30;99.90;;;;;;6038508;23;19914;-82
2023/01/29 04:56:48;;;;;;;36.47;24.10;;;3.80;99.90;;;;;;6039836;23;20071;-81
2023/01/29 04:59:28;;;;;;;35.00;24.33;;;4.20;99.90;;;;;;6011711;23;20118;-82
2023/01/29 05:02:05;;;;;;;39.88;24.67;;;3.90;99.90;;;;;;5988472;23;20099;-82
2023/01/29 05:04:32;;;;;;;;;;;3.80;99.90;;;;;;6010268;23;20019;-81
2023/01/29 05:07:11;;;;;;;40.80;25.65;;;4.20;99.90;;;;;;6009451;23;20702;-82
2023/01/29 05:09:46;;;;;;;40.15;25.70;;;3.90;99.90;;;;;;6061912;23;20028;-82
2023/01/29 05:12:17;;;;;;;40.78;26.35;;;4.30;99.90;;;;;;6155678;23;20020;-82
2023/01/29 05:14:48;;;;;;;40.42;26.67;;;3.80;99.90;;;;;;6251830;22;20437;-81
2023/01/29 05:17:23;;;;;;;37.30;25.92;;;3.80;99.90;;;;;;6251328;22;20046;-81
2023/01/29 05:19:49;;;;;;;47.60;27.48;;;4.00;99.90;;;;;;6251862;22;20037;-81
2023/01/29 05:22:21;;;;;;;41.58;26.00;;;4.10;99.90;;;;;;6253475;22;20030;-81
2023/01/29 05:24:48;;;;;;;41.53;26.58;;;3.90;99.90;;;;;;6248328;22;20439;-82
2023/01/29 05:30:12;;;;;;;36.88;25.23;;;4.30;99.90;;;;;;6278271;22;20152;-80
2023/01/29 05:32:39;;;;;;;40.20;26.83;;;3.80;99.90;;;;;;6251673;22;20438;-80
2023/01/29 05:35:06;;;;;;;41.67;26.58;;;3.80;99.90;;;;;;6251235;22;20382;-81
2023/01/29 05:37:34;;;;;;;42.90;25.92;;;4.30;99.90;;;;;;6277352;22;20015;-80
2023/01/29 05:40:00;;;;;;;40.03;26.20;;;4.00;99.90;;;;;;6252218;22;20015;-81
2023/01/29 05:42:29;;;;;;;44.10;25.92;;;3.70;99.90;;;;;;6252589;22;20228;-81
2023/01/29 05:45:06;;;;;;;42.13;25.40;;;4.20;99.90;;;;;;6252537;22;20014;-81
2023/01/29 05:47:35;;;;;;;39.85;25.45;;;3.90;99.90;;;;;;6252410;22;20482;-82
2023/01/29 05:50:01;;;;;;;42.53;25.73;;;3.70;99.90;;;;;;6257470;22;20019;-81
2023/01/29 05:52:30;;;;;;;37.10;25.00;;;4.20;99.90;;;;;;6252295;22;20029;-82
2023/01/29 05:54:56;;;;;;;39.45;25.88;;;3.70;99.90;;;;;;6251507;22;20319;-81
2023/01/29 05:57:24;;;;;;;40.17;25.60;;;4.10;99.90;;;;;;6251793;22;20011;-82
2023/01/29 05:59:50;;;;;;;38.75;24.50;;;3.70;99.90;;;;;;6252030;22;20086;-82
2023/01/29 06:02:20;;;;;;;36.17;24.63;;;4.20;99.90;;;;;;6276854;22;20053;-82
2023/01/29 06:04:49;;;;;;;38.03;24.40;;;3.70;99.90;;;;;;6277742;22;20015;-82
2023/01/29 06:07:17;;;;;;;39.30;24.63;;;3.90;99.90;;;;;;6279514;22;20012;-81
2023/01/29 06:09:43;;;;;;;37.85;24.42;;;3.70;99.90;;;;;;6277859;22;20100;-82
2023/01/29 06:12:14;;;;;;;36.00;24.50;;;3.70;99.90;;;;;;6276877;22;20090;-82
2023/01/29 06:14:42;;;;;;;34.55;24.52;;;3.70;99.90;;;;;;6226886;22;20503;-82
2023/01/29 06:17:11;;;;;;;37.30;24.38;;;4.00;99.90;;;;;;6276644;22;20022;-82
2023/01/29 06:19:37;;;;;;;41.08;25.13;;;3.90;99.90;;;;;;6276656;22;20016;-82
2023/01/29 06:22:02;;;;;;;34.17;24.70;;;4.20;99.90;;;;;;6302851;22;20090;-81
2023/01/29 06:24:31;;;;;;;39.50;25.33;;;4.00;99.90;;;;;;6250338;22;20042;-82
2023/01/29 06:27:03;;;;;;;42.50;27.77;;;4.20;99.90;;;;;;6276352;22;20465;-82
2023/01/29 06:29:29;;;;;;;51.30;30.38;;;4.30;99.90;;;;;;6277478;22;20042;-82
2023/01/29 06:31:54;;;;;;;47.65;29.98;;;3.80;99.90;;;;;;6275373;22;20443;-82
2023/01/29 06:34:26;;;;;;;44.00;30.45;;;4.20;99.90;;;;;;6275825;22;20481;-82
2023/01/29 06:36:52;;;;;;;47.72;31.73;;;4.20;99.90;;;;;;6276375;22;20145;-81
2023/01/29 06:39:20;;;;;;;48.63;31.42;;;3.80;99.90;;;;;;6276341;22;20050;-82
2023/01/29 06:41:48;;;;;;;55.58;31.70;;;4.20;99.90;;;;;;6277710;22;20014;-82
2023/01/29 06:44:16;;;;;;;52.65;33.30;;;4.10;99.90;;;;;;6277959;22;20395;-82
2023/01/29 06:46:42;;;;;;;59.58;34.22;;;4.20;99.90;;;;;;6276245;22;20012;-82
2023/01/29 06:49:13;;;;;;;52.80;33.25;;;3.80;99.90;;;;;;6276658;22;20357;-81
2023/01/29 06:51:46;;;;;;;50.30;33.15;;;4.30;99.90;;;;;;6278068;22;20045;-81
2023/01/29 06:54:15;;;;;;;53.90;33.30;;;4.20;99.90;;;;;;6277052;22;20011;-81
2023/01/29 06:56:41;;;;;;;58.83;33.83;;;4.00;99.90;;;;;;6277691;22;20575;-81
2023/01/29 06:59:10;;;;;;;57.13;33.60;;;4.00;99.90;;;;;;6276295;22;20136;-81
2023/01/29 07:01:41;;;;;;;53.00;32.67;;;4.10;99.90;;;;;;6251128;22;20015;-82
2023/01/29 07:04:15;;;;;;;56.17;33.15;;;3.90;99.90;;;;;;6251558;22;20015;-82
2023/01/29 07:06:44;;;;;;;;;;;3.80;99.90;;;;;;6273018;22;20331;-81
2023/01/29 07:09:12;;;;;;;49.58;30.52;;;4.30;99.90;;;;;;6252441;22;19985;-81
2023/01/29 07:11:38;;;;;;;46.42;31.33;;;4.30;99.90;;;;;;6252729;22;20474;-82
2023/01/29 07:14:09;;;;;;;46.95;31.25;;;4.30;99.90;;;;;;6253684;22;20450;-81
2023/01/29 07:16:38;;;;;;;48.47;31.08;;;3.90;99.90;;;;;;6253440;22;20498;-81
2023/01/29 07:19:04;;;;;;;48.38;30.85;;;3.80;99.90;;;;;;6251965;22;20023;-80
2023/01/29 07:21:30;;;;;;;47.63;30.77;;;3.90;99.90;;;;;;6253637;22;20018;-82
2023/01/29 07:23:56;;;;;;;47.15;31.52;;;4.30;99.90;;;;;;6253002;22;20018;-82
2023/01/29 07:26:22;;;;;;;51.10;31.05;;;3.80;99.90;;;;;;6252344;22;20011;-82
2023/01/29 07:28:48;;;;;;;47.38;30.58;;;4.20;99.90;;;;;;6251302;22;20689;-82
2023/01/29 07:31:14;;;;;;;49.63;32.00;;;3.80;99.90;;;;;;6251484;22;20027;-81
2023/01/29 07:33:43;;;;;;;55.92;31.88;;;4.30;99.90;;;;;;6252848;22;20037;-81
2023/01/29 07:36:10;;;;;;;48.72;31.70;;;4.30;99.90;;;;;;6253033;22;20019;-82
2023/01/29 07:38:36;;;;;;;49.80;33.85;;;4.30;99.90;;;;;;6252906;22;20119;-81
2023/01/29 07:41:01;;;;;;;49.15;32.63;;;3.80;99.90;;;;;;6275286;22;20524;-81
2023/01/29 07:43:27;;;;;;;52.67;35.50;;;3.90;99.90;;;;;;6250787;22;20030;-81
2023/01/29 07:45:53;;;;;;;61.50;37.40;;;4.20;99.90;;;;;;6250942;22;20023;-80
2023/01/29 07:48:18;;;;;;;54.40;37.20;;;3.80;99.90;;;;;;6251300;22;20054;-81
2023/01/29 07:50:44;;;;;;;53.65;38.00;;;4.20;99.90;;;;;;6276301;22;20450;-80
2023/01/29 07:53:14;;;;;;;60.08;38.55;;;4.10;99.90;;;;;;6248542;22;20098;-81
2023/01/29 07:55:42;;;;;;;55.53;37.53;;;3.80;99.90;;;;;;6250660;22;20391;-82
2023/01/29 07:58:08;;;;;;;50.53;35.60;;;4.30;99.90;;;;;;6275428;22;20015;-81
2023/01/29 08:00:35;;;;;;;50.38;35.65;;;3.90;99.90;;;;;;6249626;22;20117;-82
2023/01/29 08:03:05;;;;;;;55.42;36.45;;;3.90;99.90;;;;;;6273397;22;20774;-83
2023/01/29 08:05:31;;;;;;;54.97;36.60;;;4.30;99.90;;;;;;6250426;22;20087;-81
2023/01/29 08:07:57;;;;;;;56.25;36.28;;;4.30;99.90;;;;;;6249057;22;20137;-82
2023/01/29 08:10:23;;;;;;;54.95;36.92;;;4.00;99.90;;;;;;6249104;22;20702;-81
2023/01/29 08:13:02;;;;;;;54.38;37.30;;;4.40;99.90;;;;;;6251744;22;20837;-82
2023/01/29 08:15:34;;;;;;;57.60;36.95;;;3.90;99.90;;;;;;6248849;22;20019;-83
2023/01/29 08:18:01;;;;;;;58.60;37.85;;;4.00;99.90;;;;;;6249440;22;20168;-83
2023/01/29 08:20:27;;;;;;;55.13;36.58;;;4.30;99.90;;;;;;6250337;22;20019;-81
2023/01/29 08:23:05;;;;;;;50.90;35.97;;;4.30;99.90;;;;;;6248216;22;20057;-82
2023/01/29 08:25:31;;;;;;;60.33;36.78;;;4.00;99.90;;;;;;6246938;22;20448;-82
2023/01/29 08:28:00;;;;;;;57.22;36.72;;;3.90;99.90;;;;;;6248395;22;20032;-81
2023/01/29 08:30:51;;;;;;;55.78;36.35;;;4.20;99.90;;;;;;6248543;22;20314;-81
2023/01/29 08:33:17;;;;;;;54.60;37.90;;;4.20;99.90;;;;;;6271979;22;20022;-82
2023/01/29 08:35:47;;;;;;;54.17;35.75;;;4.10;99.90;;;;;;6270265;22;20347;-82
2023/01/29 08:38:12;;;;;;;59.97;39.22;;;3.90;99.90;;;;;;6271721;22;20086;-83
2023/01/29 08:41:04;;;;;;;58.92;38.33;;;4.40;99.90;;;;;;6275991;22;20043;-85
2023/01/29 08:43:37;;;;;;;56.15;38.50;;;4.40;99.90;;;;;;6246977;22;20447;-81
2023/01/29 08:46:07;;;;;;;54.58;38.17;;;4.40;99.90;;;;;;6275030;22;20238;-83
2023/01/29 08:48:33;;;;;;;58.17;38.55;;;4.40;99.90;;;;;;6248551;22;20102;-82
2023/01/29 08:51:15;;;;;;;60.85;39.75;;;4.40;99.90;;;;;;6249197;22;20019;-82
2023/01/29 08:53:46;;;;;;;56.45;37.40;;;4.40;99.90;;;;;;6246074;22;20090;-81
2023/01/29 08:56:12;;;;;;;58.80;39.08;;;4.10;99.90;;;;;;6247222;22;20185;-80
2023/01/29 08:58:38;;;;;;;61.10;39.42;;;4.50;99.90;;;;;;6290566;22;20483;-81
2023/01/29 09:01:08;;;;;;;57.33;38.60;;;4.00;99.90;;;;;;6273817;22;20015;-79
2023/01/29 09:03:34;;;;;;;57.58;38.67;;;4.10;99.90;;;;;;6298863;22;20103;-80
2023/01/29 09:06:00;;;;;;;57.95;37.55;;;4.50;99.90;;;;;;6272881;22;20177;-81
2023/01/29 09:08:26;;;;;;;65.47;39.30;;;4.50;99.90;;;;;;6269834;22;20015;-79
2023/01/29 09:10:52;;;;;;;62.17;38.00;;;4.10;99.90;;;;;;6296903;22;20351;-80
2023/01/29 09:13:19;;;;;;;59.38;39.05;;;4.20;99.90;;;;;;6297862;22;20110;-80
2023/01/29 09:15:45;;;;;;;59.08;38.15;;;4.20;99.90;;;;;;6297336;22;20026;-80
2023/01/29 09:18:10;;;;;;;65.05;38.90;;;4.40;99.90;;;;;;6298515;22;20043;-81
2023/01/29 09:20:37;;;;;;;58.00;37.45;;;4.60;99.90;;;;;;6273698;22;20008;-84
2023/01/29 09:23:21;;;;;;;59.55;38.25;;;4.20;99.90;;;;;;6303548;22;20303;-82
2023/01/29 09:25:46;;;;;;;62.85;39.45;;;4.30;99.90;;;;;;6299242;22;20035;-84
2023/01/29 09:28:12;;;;;;;57.13;38.72;;;4.70;99.90;;;;;;6300512;22;20035;-85
2023/01/29 09:30:38;;;;;;;64.78;38.35;;;4.30;99.90;;;;;;6273618;22;20030;-83
2023/01/29 09:33:04;;;;;;;56.40;35.08;;;4.70;99.90;;;;;;6272654;22;20023;-84
2023/01/29 09:35:30;;;;;;;58.47;36.17;;;4.80;99.90;;;;;;6274748;22;20319;-83
2023/01/29 09:37:58;;;;;;;60.42;36.47;;;4.40;99.90;;;;;;6273823;22;20011;-84
2023/01/29 09:40:27;;;;;;;59.80;35.55;;;4.60;99.90;;;;;;6308327;22;20626;-84
2023/01/29 09:43:40;;;;;;;57.58;35.67;;;4.70;99.90;;;;;;6301103;22;20007;-81
2023/01/29 09:46:42;;;;;;;58.70;36.15;;;4.80;99.90;;;;;;6114529;23;20081;-81
2023/01/29 09:49:18;;;;;;;55.08;35.20;;;4.80;99.90;;;;;;6093411;23;20415;-80
2023/01/29 09:51:50;;;;;;;56.97;35.80;;;4.90;99.90;;;;;;6125055;23;20383;-80
2023/01/29 09:54:24;;;;;;;55.33;34.47;;;4.80;99.90;;;;;;6116821;23;20017;-80
2023/01/29 09:56:57;;;;;;;55.40;35.53;;;4.80;99.90;;;;;;6069744;23;20160;-82
2023/01/29 09:59:28;;;;;;;58.40;34.97;;;4.70;99.90;;;;;;6085098;23;20085;-82
2023/01/29 10:02:34;;;;;;;57.88;36.15;;;4.70;99.90;;;;;;6064620;23;20459;-83
2023/01/29 10:05:06;;;;;;;61.55;37.08;;;4.80;99.90;;;;;;6063639;23;20480;-82
2023/01/29 10:07:47;;;;;;;57.72;36.15;;;4.70;99.90;;;;;;6088793;23;20359;-82
2023/01/29 10:10:45;;;;;;;60.08;36.03;;;4.60;99.90;;;;;;6042399;23;20018;-81
2023/01/29 10:13:36;;;;;;;58.42;37.50;;;4.90;99.90;;;;;;6039437;23;20328;-81
2023/01/29 10:16:16;;;;;;;65.28;38.38;;;4.80;99.90;;;;;;6037880;23;20029;-80
2023/01/29 10:18:55;;;;;;;58.45;38.60;;;4.90;99.90;;;;;;6091588;23;20026;-80
2023/01/29 10:21:29;;;;;;;71.80;42.75;;;4.90;99.90;;;;;;6104299;23;20327;-82
2023/01/29 10:24:12;;;;;;;67.53;39.22;;;4.90;99.90;;;;;;6209584;23;20020;-81
2023/01/29 10:26:39;;;;;;;60.65;38.33;;;4.90;99.90;;;;;;6215417;23;20176;-83
2023/01/29 10:29:06;;;;;;;64.28;38.05;;;4.90;99.90;;;;;;6190838;23;20095;-82
2023/01/29 10:31:38;;;;;;;68.22;39.30;;;4.90;99.90;;;;;;6189653;23;20012;-82
2023/01/29 10:34:31;;;;;;;66.10;38.88;;;4.80;99.90;;;;;;6188470;23;20012;-81
2023/01/29 10:36:56;;;;;;;69.90;40.67;;;5.00;99.90;;;;;;6214793;23;20019;-81
2023/01/29 10:39:24;;;;;;;67.03;39.55;;;4.80;99.90;;;;;;6212267;23;20409;-81
2023/01/29 10:41:58;;;;;;;61.30;35.30;;;4.60;99.90;;;;;;6187248;23;20027;-83
2023/01/29 10:44:36;;;;;;;60.80;37.50;;;4.80;99.90;;;;;;6209392;23;20054;-84
2023/01/29 10:47:17;;;;;;;60.50;37.40;;;4.90;99.90;;;;;;6210027;23;20052;-82
2023/01/29 10:49:46;;;;;;;68.95;39.13;;;4.90;99.90;;;;;;6237862;22;20011;-80
2023/01/29 10:52:41;;;;;;;66.50;39.10;;;4.60;99.90;;;;;;6272870;22;20021;-82
2023/01/29 10:55:10;;;;;;;78.30;40.25;;;4.80;99.90;;;;;;6247536;22;20017;-82
2023/01/29 10:57:45;;;;;;;72.45;39.72;;;4.60;99.90;;;;;;6250667;22;20109;-81
2023/01/29 11:00:20;;;;;;;72.32;40.22;;;4.50;99.90;;;;;;6296513;22;20015;-82
2023/01/29 11:02:49;;;;;;;;;;;5.10;99.90;;;;;;6271003;22;20068;-81
2023/01/29 11:05:34;;;;;;;65.32;36.88;;;4.60;99.90;;;;;;6297581;22;19914;-81
2023/01/29 11:08:06;;;;;;;71.35;39.03;;;4.60;99.90;;;;;;6274904;22;20399;-81
2023/01/29 11:10:39;;;;;;;70.63;40.00;;;5.10;99.90;;;;;;6275696;22;20094;-81
2023/01/29 11:13:05;;;;;;;68.10;38.95;;;4.90;99.90;;;;;;6302852;22;20038;-79
2023/01/29 11:15:35;;;;;;;74.57;41.17;;;4.60;99.90;;;;;;6277858;22;20344;-78
2023/01/29 11:18:14;;;;;;;72.45;41.47;;;4.80;99.90;;;;;;6301787;22;20015;-80
2023/01/29 11:20:41;;;;;;;68.88;39.10;;;4.80;99.90;;;;;;6276308;22;20084;-79
2023/01/29 11:23:27;;;;;;;67.35;39.05;;;4.80;99.90;;;;;;6301067;22;20015;-80
2023/01/29 11:25:54;;;;;;;64.93;37.65;;;4.70;99.90;;;;;;6301023;22;20016;-79
2023/01/29 11:28:36;;;;;;;65.45;38.75;;;5.00;99.90;;;;;;6300664;22;20023;-79
2023/01/29 11:31:27;;;;;;;63.65;38.55;;;5.30;99.90;;;;;;6217738;22;20032;-79
2023/01/29 11:34:04;;;;;;;70.20;40.25;;;4.70;99.90;;;;;;6245350;22;20024;-79
2023/01/29 11:36:35;;;;;;;69.25;39.92;;;4.80;99.90;;;;;;6271451;22;20379;-79
2023/01/29 11:39:21;;;;;;;71.82;39.90;;;5.10;99.90;;;;;;6244421;22;20092;-80
2023/01/29 11:41:57;;;;;;;67.75;37.75;;;5.20;99.90;;;;;;6243493;22;20107;-79
2023/01/29 11:44:31;;;;;;;74.10;41.10;;;5.10;99.90;;;;;;6244819;22;20043;-80
2023/01/29 11:47:25;;;;;;;70.05;39.95;;;4.60;99.90;;;;;;6245489;22;20007;-82
2023/01/29 11:50:00;;;;;;;70.75;37.78;;;5.20;99.90;;;;;;6244684;22;20012;-82
2023/01/29 11:52:37;;;;;;;63.33;36.15;;;5.10;99.90;;;;;;6243003;22;20403;-81
2023/01/29 11:55:14;;;;;;;78.75;40.80;;;4.80;99.90;;;;;;6242037;22;20023;-81
2023/01/29 11:57:42;;;;;;;65.85;37.05;;;5.30;99.90;;;;;;6268431;22;20068;-82
2023/01/29 12:00:20;;;;;;;63.47;37.15;;;4.90;99.90;;;;;;6217400;22;20020;-82
2023/01/29 12:02:53;;;;;;;63.50;37.38;;;5.00;99.90;;;;;;6219192;22;20015;-82
2023/01/29 12:05:25;;;;;;;69.45;38.33;;;4.90;99.90;;;;;;6192920;22;20023;-80
2023/01/29 12:07:58;;;;;;;62.20;36.08;;;5.40;99.90;;;;;;6266078;22;20026;-77
2023/01/29 12:10:39;;;;;;;66.07;36.20;;;4.90;99.90;;;;;;6269563;22;20086;-78
2023/01/29 12:13:18;;;;;;;58.20;35.08;;;5.10;99.90;;;;;;6218076;22;20015;-81
2023/01/29 12:15:45;;;;;;;57.70;33.95;;;5.00;99.90;;;;;;6216600;22;20016;-80
2023/01/29 12:18:29;;;;;;;59.47;35.20;;;5.40;99.90;;;;;;6215478;22;20020;-80
2023/01/29 12:21:02;;;;;;;55.17;33.58;;;4.90;99.90;;;;;;6242695;22;20008;-79
2023/01/29 12:23:49;;;;;;;59.55;34.05;;;5.20;99.90;;;;;;6216544;22;20074;-82
2023/01/29 12:26:20;;;;;;;59.03;32.40;;;5.40;99.90;;;;;;6267368;22;20016;-81
2023/01/29 12:29:04;;;;;;;50.03;30.23;;;5.30;99.90;;;;;;6242616;22;20511;-81
2023/01/29 12:31:57;;;;;;;49.90;29.23;;;5.10;99.90;;;;;;6218887;22;20058;-82
2023/01/29 12:34:45;;;;;;;47.38;28.80;;;5.60;99.90;;;;;;6221546;22;20016;-84
2023/01/29 12:37:45;;;;;;;44.42;27.48;;;5.40;99.90;;;;;;6247207;22;20020;-81
2023/01/29 12:40:37;;;;;;;44.88;26.60;;;5.20;99.90;;;;;;6222075;22;20011;-81
2023/01/29 12:43:15;;;;;;;40.90;27.40;;;5.10;99.90;;;;;;6217887;22;20447;-78
2023/01/29 12:45:43;;;;;;;43.08;25.60;;;5.10;99.90;;;;;;6269835;22;20019;-81
2023/01/29 12:48:13;;;;;;;44.72;27.90;;;5.70;99.90;;;;;;6220499;22;20335;-80
2023/01/29 12:50:40;;;;;;;44.45;27.15;;;5.70;99.90;;;;;;6219296;22;20015;-82
2023/01/29 12:53:24;;;;;;;41.38;25.77;;;5.30;99.90;;;;;;6219966;22;20015;-79
2023/01/29 12:56:03;;;;;;;46.28;27.23;;;5.30;99.90;;;;;;6220277;22;20118;-80
2023/01/29 12:58:33;;;;;;;42.03;25.70;;;5.40;99.90;;;;;;6238649;22;20012;-82
2023/01/29 13:01:26;;;;;;;43.13;27.13;;;5.20;99.90;;;;;;6270212;22;20081;-83
2023/01/29 13:04:08;;;;;;;39.63;25.00;;;5.50;99.90;;;;;;6244392;22;20011;-80
2023/01/29 13:06:51;;;;;;;40.00;24.20;;;5.30;99.90;;;;;;6244632;22;20061;-81
2023/01/29 13:13:12;;;;;;;48.03;26.75;;;5.30;99.90;;;;;;6295500;22;20020;-82
2023/01/29 13:15:41;;;;;;;41.08;24.52;;;5.30;99.90;;;;;;6272524;22;20020;-80
2023/01/29 13:18:28;;;;;;;40.40;25.38;;;5.20;99.90;;;;;;6241221;22;20016;-82
2023/01/29 13:20:55;;;;;;;40.80;25.23;;;5.60;99.90;;;;;;6241766;22;20012;-80
2023/01/29 13:23:27;;;;;;;38.40;24.30;;;5.40;99.90;;;;;;6265218;22;20016;-80
2023/01/29 13:25:53;;;;;;;42.05;25.98;;;5.60;99.90;;;;;;6242594;22;20008;-81
2023/01/29 13:28:22;;;;;;;40.50;25.25;;;5.50;99.90;;;;;;6266387;22;20312;-78
2023/01/29 13:31:20;;;;;;;38.80;24.50;;;5.60;99.90;;;;;;6266666;22;20061;-78
2023/01/29 13:33:54;;;;;;;40.17;23.95;;;5.20;99.90;;;;;;6243299;22;20159;-83
2023/01/29 13:36:27;;;;;;;37.22;23.92;;;5.20;99.90;;;;;;6242840;22;20130;-79
2023/01/29 13:39:07;;;;;;;35.95;23.05;;;5.50;99.90;;;;;;6240620;22;20340;-81
2023/01/29 13:41:43;;;;;;;37.20;22.65;;;5.70;99.90;;;;;;6243809;22;20388;-81
2023/01/29 13:44:21;;;;;;;31.17;19.55;;;5.20;99.90;;;;;;6246350;22;20095;-84
2023/01/29 13:46:59;;;;;;;38.97;22.70;;;5.60;99.90;;;;;;6240138;22;20015;-82